Fultondale, AL

5:22 PM CDT on May 28, 2015 (GMT -0500)
Shelby County | | Change Station
CLOSE
Current Station
Airport
Location: Alabaster,
Elevation: 584 ft
Nearby Weather Stations
Active Advisory: Areal Flood Advisory

Elev 584 ft 33.18 °N, 86.78 °W | Updated 29 minutes ago

Rain
Rain
74 °F
Feels Like 74 °F
N
4
Wind Variable Wind from NW

Today
High -- | Low -- °F
--% Chance of Precip.
Yesterday
High -- | Low -- °F
Precip. -- in
5:39 AM 7:49 PM
Waxing Gibbous, 79% visible
Pressure 30.11 in
Visibility 10.0 miles
Clouds Overcast 11000 ft
Dew Point 70 °F
Humidity 87%
Rainfall 0.93 in
Snow Depth Not available.
UV 1 out of 12
Pollen 4.80 out of 12
Air Quality Not available.
Flu Activity Sporadic
METAR KEET 282153Z AUTO 32003KT 10SM OVC110 23/21 A3012 RMK AO2 RAE2059 SLP194 P0000 T02330211

More Conditions Fewer Conditions

Pressure 30.11 in
Visibility 10.0 miles
Clouds Overcast 11000 ft
Dew Point 70 °F
Humidity 87%
Rainfall 0.93 in
Snow Depth Not available.
UV 1 out of 12
Pollen 4.80 out of 12
Air Quality Not available.
Flu Activity Sporadic
METAR KEET 282153Z AUTO 32003KT 10SM OVC110 23/21 A3012 RMK AO2 RAE2059 SLP194 P0000 T02330211

More Conditions Fewer Conditions

10-Day Weather Forecast

Almanac

Astronomy

May. 28, 2015 Rise Set
Actual Time
Civil Twilight
Nautical Twilight
Astronomical Twilight
Moon
Length of Visible Light
Length of Day
Tomorrow will be .
, % of the Moon is Illuminated

Today's Extremes

State Highs State Lows

Community

WunderPhotos

Upload Photos

1,825,086 photos uploaded!

WunderBlogs® & News

Nearby

Air Quality

  Air Quality AQ Index Pollutant
Not available.

Snow Depth

Station Depth Elevation

Earthquake Activity

City Distance Mag. Time & Date
Minimum magnitude displayed is 2.5.

Coastal Water Temperatures

Place Temperature

Stations

Nearby Weather Stations

Station Location Temp. Windchill Dew Point Humidity Wind Precip. Elev Updated Type
                   
Areal Flood Advisory
Statement as of 3:09 PM CDT on May 28, 2015

The National Weather Service in Birmingham has issued a

* Flood Advisory for...
central Jefferson County in central Alabama...

* until 615 PM CDT

* at 308 PM CDT... Doppler radar indicated heavy rain due to
thunderstorms across much of the County. This will cause minor
flooding in the advisory area.

* Some locations that will experience flooding include...
Birmingham... Hoover... Vestavia Hills... Bessemer... Homewood...
Mountain Brook... Hueytown... Gardendale... Fairfield... Fultondale...
Pleasant Grove... Tarrant... Midfield... Adamsville... Warrior...
Brighton... Kimberly... Lipscomb... Graysville and Morris.

Lat... Lon 3380 8671 3342 8673 3342 8675 3340 8675
      3338 8678 3336 8694 3377 8702 3377 8701
      3379 8700 3379 8697 3380 8697 3380 8695
      3382 8695 3382 8693 3383 8691

Stefkovich